Burton City, Ohio
Current Conditions -  °F | °C
As of 8:51 AM on Monday 24 Nov 2014 (Local Time) from KCAK Reporting Station
Broken Clouds Broken Clouds  
Wind Chill: 60°   Ceiling: 2400
Heat Index: 60°   Visibility: 10mi
Dew Point: 52°   Wind: 25mph
Humidity: 75%   Direction: 200°SSW
Pressure: 29.33"   Gusts: 39mph
Location:  40.8369°N, 81.7632°W
Report Text: KCAK 241351Z 20022G34KT 10SM BKN024 BKN065 16/11 A2933 RMK AO2 PK WND 19034/1345 SLP930 T01560111 $
Loading
Personal Weather Stations






























Interactive Weather Map New forecast layout! Learn more

10-Day Weather Forecast

Advertisements
Track Severe Weather on mobile